Time;durP1;ratioP1;P1;durP2;ratioP2;P2;SDS_P1;SDS_P2;PMS_P1;PMS_P2;Temp;Humidity;BMP_temperature;BMP_pressure;BME280_temperature;BME280_humidity;BME280_pressure;Samples;Min_cycle;Max_cycle;Signal;HPM_P1;HPM_P2
2022/05/24 00:00:24;;;;;;;4.28;2.02;;;;;;;11.52;88.21;150548.02;1768416;81;21085;-61
2022/05/24 00:02:52;;;;;;;4.42;2.30;;;;;;;11.46;88.42;150533.72;1768053;81;21122;-65
2022/05/24 00:05:20;;;;;;;4.30;2.25;;;;;;;11.43;88.52;150525.94;1768083;81;21503;-61
2022/05/24 00:07:47;;;;;;;3.58;2.37;;;;;;;11.37;88.72;150511.64;1768389;81;21015;-66
2022/05/24 00:10:18;;;;;;;3.12;2.25;;;;;;;11.34;88.90;150503.86;1769717;81;20902;-64
2022/05/24 00:12:45;;;;;;;2.83;2.17;;;;;;;11.32;89.02;150498.66;1780223;80;21457;-65
2022/05/24 00:15:23;;;;;;;3.35;2.40;;;;;;;11.28;89.04;150489.61;1789426;79;21276;-65
2022/05/24 00:18:05;;;;;;;6.62;2.77;;;;;;;11.26;89.19;150483.09;1789593;80;21060;-61
2022/05/24 00:20:43;;;;;;;6.37;2.58;;;;;;;11.23;89.36;150475.31;1771339;80;21020;-61
2022/05/24 00:23:10;;;;;;;3.52;2.40;;;;;;;11.14;89.56;150453.23;1788739;79;21064;-60
2022/05/24 00:25:42;;;;;;;6.75;2.55;;;;;;;11.10;89.93;150444.14;1788955;79;21103;-60
2022/05/24 00:28:09;;;;;;;3.72;2.70;;;;;;;11.04;89.93;150429.84;1788922;79;21115;-63
2022/05/24 00:30:36;;;;;;;3.15;2.12;;;;;;;10.98;90.17;150413.00;1789226;79;20996;-64
2022/05/24 00:33:05;;;;;;;4.22;2.45;;;;;;;10.89;90.41;150392.22;1789318;80;20921;-61
2022/05/24 00:35:32;;;;;;;3.08;2.42;;;;;;;10.86;90.68;150383.16;1789358;79;21028;-61
2022/05/24 00:38:00;;;;;;;4.85;2.72;;;;;;;10.78;90.95;150363.69;1789277;80;21072;-62
2022/05/24 00:40:39;;;;;;;4.50;2.70;;;;;;;10.75;91.25;150357.17;1789359;78;21119;-61
2022/05/24 00:43:28;;;;;;;3.60;2.70;;;;;;;10.71;91.44;150345.48;1789692;80;20993;-62
2022/05/24 00:46:00;;;;;;;4.62;2.55;;;;;;;10.63;91.46;150324.73;1789337;80;20989;-61
2022/05/24 00:48:31;;;;;;;3.40;2.33;;;;;;;10.55;91.96;150305.25;1769569;80;21099;-64
2022/05/24 00:50:59;;;;;;;5.05;2.52;;;;;;;10.53;92.00;150301.39;1789442;80;21063;-63
2022/05/24 00:53:33;;;;;;;3.95;2.42;;;;;;;10.48;92.11;150288.38;1789841;79;21865;-64
2022/05/24 00:56:48;;;;;;;4.75;2.72;;;;;;;10.41;92.23;150270.23;1788297;80;20933;-65
2022/05/24 00:59:29;;;;;;;3.98;2.62;;;;;;;10.38;92.51;150262.41;1788977;79;20989;-64
2022/05/24 01:01:58;;;;;;;3.00;2.27;;;;;;;10.33;92.63;150250.72;1782486;79;21437;-64
2022/05/24 01:04:24;;;;;;;3.00;2.37;;;;;;;10.29;92.77;150240.34;1769588;80;20976;-64
2022/05/24 01:06:52;;;;;;;3.30;2.50;;;;;;;10.24;93.00;150228.66;1789334;79;21849;-65
2022/05/24 01:09:24;;;;;;;3.95;2.90;;;;;;;10.23;93.17;150226.06;1789561;80;21034;-64
2022/05/24 01:11:56;;;;;;;5.97;2.80;;;;;;;10.25;93.26;150231.25;1787604;79;21468;-65
2022/05/24 01:14:24;;;;;;;5.95;2.62;;;;;;;10.26;93.37;150233.84;1787652;80;20998;-65
2022/05/24 01:16:52;;;;;;;3.00;2.35;;;;;;;10.27;93.35;150236.44;1787871;80;21057;-63
2022/05/24 01:19:41;;;;;;;6.08;2.40;;;;;;;10.27;93.39;150236.44;1756186;80;21194;-64
2022/05/24 01:22:48;;;;;;;5.12;2.60;;;;;;;10.27;93.22;150236.44;1787684;80;21498;-64
2022/05/24 01:25:48;;;;;;;3.50;2.33;;;;;;;10.25;93.26;150231.25;1788084;80;20990;-64
2022/05/24 01:28:29;;;;;;;3.22;2.75;;;;;;;10.22;93.21;150222.19;1787780;80;21014;-64
2022/05/24 01:30:56;;;;;;;5.00;2.80;;;;;;;10.20;93.29;150217.02;1779675;80;22009;-65
2022/05/24 01:36:10;;;;;;;5.55;2.85;;;;;;;10.19;93.74;150215.69;1712729;83;21091;-64
2022/05/24 01:38:43;;;;;;;5.22;3.02;;;;;;;10.17;93.70;150210.50;1787465;80;21006;-63
2022/05/24 01:41:13;;;;;;;3.50;2.90;;;;;;;10.10;93.89;150193.63;1787866;80;21104;-65
2022/05/24 01:43:42;;;;;;;5.80;3.15;;;;;;;10.04;93.96;150179.34;1787870;80;21009;-64
2022/05/24 01:46:10;;;;;;;3.27;2.70;;;;;;;10.01;94.10;150171.58;1788017;80;21086;-65
2022/05/24 01:48:46;;;;;;;5.83;2.77;;;;;;;9.97;94.06;150161.20;1787629;80;20927;-64
2022/05/24 01:51:15;;;;;;;5.67;2.58;;;;;;;9.97;94.16;150159.94;1787720;80;21002;-63
2022/05/24 01:53:46;;;;;;;3.95;2.77;;;;;;;9.97;94.18;150161.20;1788121;80;21081;-64
2022/05/24 01:56:18;;;;;;;4.45;2.90;;;;;;;9.99;94.04;150165.12;1787896;80;21073;-63
2022/05/24 01:58:48;;;;;;;3.08;2.70;;;;;;;10.01;93.91;150170.31;1786250;80;21942;-67
2022/05/24 02:01:41;;;;;;;4.58;3.10;;;;;;;10.00;93.72;150167.72;1787496;80;20942;-64
2022/05/24 02:04:08;;;;;;;4.37;2.52;;;;;;;9.98;93.59;150163.80;1787724;80;21542;-63
2022/05/24 02:06:35;;;;;;;4.40;2.62;;;;;;;9.97;93.57;150161.20;1786744;80;21467;-65
2022/05/24 02:09:06;;;;;;;4.95;2.83;;;;;;;9.98;93.34;150163.80;1782488;80;21061;-65
2022/05/24 02:11:34;;;;;;;3.45;2.70;;;;;;;9.96;93.14;150157.34;1788634;80;21259;-65
2022/05/24 02:14:22;;;;;;;5.65;2.65;;;;;;;9.92;92.99;150148.25;1777261;79;21013;-64
2022/05/24 02:17:04;;;;;;;3.10;2.65;;;;;;;9.90;93.02;150143.06;1772739;81;21512;-64
2022/05/24 02:19:31;;;;;;;5.85;2.62;;;;;;;9.90;93.07;150143.06;1772789;81;21037;-66
2022/05/24 02:22:01;;;;;;;4.10;2.75;;;;;;;9.89;93.02;150140.47;1759752;81;21036;-64
2022/05/24 02:24:29;;;;;;;5.05;2.60;;;;;;;9.93;93.10;150150.84;1773020;79;21860;-61
2022/05/24 02:26:57;;;;;;;3.05;2.40;;;;;;;9.94;92.93;150153.44;1772883;81;21013;-61
2022/05/24 02:29:24;;;;;;;3.58;2.35;;;;;;;9.98;92.83;150163.80;1759549;81;21069;-60
2022/05/24 02:31:51;;;;;;;5.25;2.90;;;;;;;9.97;92.63;150161.20;1772431;81;21001;-60
2022/05/24 02:34:18;;;;;;;5.50;3.08;;;;;;;10.01;92.45;150170.31;1772748;81;21037;-61
2022/05/24 02:36:46;;;;;;;4.85;2.75;;;;;;;10.01;92.29;150171.58;1772827;81;20996;-60
2022/05/24 02:39:13;;;;;;;4.42;2.37;;;;;;;10.05;92.13;150180.67;1773014;81;21426;-60
2022/05/24 02:41:43;;;;;;;5.25;2.70;;;;;;;10.12;92.04;150197.55;1772117;79;21091;-66
2022/05/24 02:44:13;;;;;;;2.92;2.17;;;;;;;10.15;91.75;150205.31;1772856;81;21057;-64
2022/05/24 02:46:43;;;;;;;5.45;2.80;;;;;;;10.19;91.59;150215.69;1772802;81;21152;-61
2022/05/24 02:49:10;;;;;;;4.00;2.80;;;;;;;10.23;91.38;150226.06;1772951;81;21208;-61
2022/05/24 02:51:38;;;;;;;3.90;2.50;;;;;;;10.31;91.35;150245.53;1772267;81;21192;-60
2022/05/24 02:54:07;;;;;;;4.75;2.45;;;;;;;10.40;91.15;150267.59;1772773;81;21064;-60
2022/05/24 02:56:34;;;;;;;4.12;2.40;;;;;;;10.49;90.77;150290.97;1772784;81;21037;-61
2022/05/24 02:59:04;;;;;;;3.12;2.27;;;;;;;10.57;90.27;150311.77;1772743;81;20986;-64
2022/05/24 03:01:32;;;;;;;4.92;2.35;;;;;;;10.64;89.87;150328.66;1772245;81;21133;-63
2022/05/24 03:04:01;;;;;;;5.08;2.60;;;;;;;10.72;89.56;150348.06;1772752;81;21633;-61
2022/05/24 03:09:33;;;;;;;2.98;2.40;;;;;;;10.79;88.91;150366.28;1772703;79;21012;-63
2022/05/24 03:14:30;;;;;;;3.33;2.30;;;;;;;11.15;87.85;150457.11;1785723;78;21125;-64
2022/05/24 03:16:57;;;;;;;2.98;2.20;;;;;;;11.29;87.36;150490.88;1789144;78;21600;-64
2022/05/24 03:19:24;;;;;;;3.42;2.40;;;;;;;11.42;86.76;150524.66;1789351;80;21037;-63
2022/05/24 03:21:52;;;;;;;2.15;1.95;;;;;;;11.55;86.29;150555.80;1788855;80;20964;-64
2022/05/24 03:24:19;;;;;;;5.08;2.30;;;;;;;11.70;85.51;150594.78;1789336;80;20977;-64
2022/05/24 03:26:47;;;;;;;8.65;2.58;;;;;;;11.84;84.89;150629.83;1789472;79;21260;-65
2022/05/24 03:29:14;;;;;;;4.58;2.30;;;;;;;11.96;84.29;150659.70;1789811;79;21103;-64
2022/05/24 03:31:42;;;;;;;4.58;2.45;;;;;;;12.13;83.62;150701.34;1788631;79;21106;-65
2022/05/24 03:34:09;;;;;;;3.17;2.20;;;;;;;12.26;82.63;150735.09;1789141;80;21036;-64
2022/05/24 03:36:37;;;;;;;2.50;2.12;;;;;;;12.36;81.97;150758.50;1789242;79;21060;-64
2022/05/24 03:39:05;;;;;;;3.77;2.05;;;;;;;12.45;81.21;150781.88;1789338;80;21762;-61
2022/05/24 03:41:32;;;;;;;5.05;2.50;;;;;;;12.57;80.51;150811.75;1788974;80;21025;-64
2022/05/24 03:44:00;;;;;;;3.20;2.27;;;;;;;12.66;79.94;150835.19;1789444;80;21076;-64
2022/05/24 03:46:32;;;;;;;3.77;2.52;;;;;;;12.77;79.33;150861.16;1789379;80;21497;-65
2022/05/24 03:48:59;;;;;;;5.17;2.20;;;;;;;12.87;78.79;150888.44;1744658;80;21001;-61
2022/05/24 03:51:26;;;;;;;4.15;2.10;;;;;;;12.98;77.90;150915.75;1789066;79;21422;-60
2022/05/24 03:53:53;;;;;;;3.58;2.15;;;;;;;13.08;77.32;150940.44;1788583;80;20989;-61
2022/05/24 03:56:22;;;;;;;6.10;2.22;;;;;;;13.20;76.85;150969.06;1788805;80;20882;-61
2022/05/24 03:58:49;;;;;;;2.62;2.05;;;;;;;13.30;76.38;150995.05;1788908;79;21703;-62
2022/05/24 04:01:17;;;;;;;3.15;2.00;;;;;;;13.44;75.83;151030.20;1788756;79;21056;-62
2022/05/24 04:03:44;;;;;;;4.80;2.00;;;;;;;13.56;75.20;151060.11;1789163;78;21864;-62
2022/05/24 04:06:11;;;;;;;3.95;2.00;;;;;;;13.69;74.25;151092.61;1789337;79;20964;-61
2022/05/24 04:08:41;;;;;;;5.12;2.20;;;;;;;13.83;73.88;151127.77;1788834;79;21514;-63
2022/05/24 04:11:10;;;;;;;5.37;1.80;;;;;;;13.96;73.04;151161.56;1788305;80;21028;-62
2022/05/24 04:13:38;;;;;;;5.10;2.00;;;;;;;14.09;72.50;151194.08;1789309;78;21397;-62
2022/05/24 04:16:05;;;;;;;3.15;1.92;;;;;;;14.26;71.46;151235.72;1789506;79;21823;-62
2022/05/24 04:18:33;;;;;;;6.55;2.17;;;;;;;14.41;70.70;151273.45;1789421;78;20968;-62
2022/05/24 04:21:00;;;;;;;2.45;1.92;;;;;;;14.59;69.39;151320.31;1789472;79;20956;-60
2022/05/24 04:23:27;;;;;;;4.35;1.82;;;;;;;14.71;68.31;151349.00;1789399;80;21275;-62
2022/05/24 04:25:55;;;;;;;2.33;1.52;;;;;;;14.84;67.29;151381.55;1789452;78;20988;-61
2022/05/24 04:28:23;;;;;;;4.42;1.77;;;;;;;14.95;66.51;151408.88;1789501;80;21595;-62
2022/05/24 04:30:51;;;;;;;1.85;1.50;;;;;;;15.08;65.87;151442.69;1789256;78;21092;-61
2022/05/24 04:33:18;;;;;;;3.67;1.90;;;;;;;15.20;65.08;151471.36;1789375;80;20980;-63
2022/05/24 04:35:46;;;;;;;2.47;1.70;;;;;;;15.33;64.21;151505.19;1789404;79;21008;-61
2022/05/24 04:38:13;;;;;;;4.05;2.08;;;;;;;15.43;63.84;151529.92;1789572;79;21446;-62
2022/05/24 04:43:27;;;;;;;6.15;2.35;;;;;;;15.71;62.98;151601.56;1789304;80;21028;-62
2022/05/24 04:45:55;;;;;;;3.80;2.20;;;;;;;15.89;62.18;151645.91;1789079;78;21059;-61
2022/05/24 04:48:23;;;;;;;3.33;1.90;;;;;;;16.02;61.78;151679.73;1789164;79;21040;-62
2022/05/24 04:50:53;;;;;;;3.05;2.00;;;;;;;16.16;61.05;151714.95;1789127;80;21016;-59
2022/05/24 04:53:20;;;;;;;5.45;2.45;;;;;;;16.25;60.52;151737.11;1789545;80;21406;-60
2022/05/24 04:55:50;;;;;;;3.42;1.87;;;;;;;16.35;60.04;151760.53;1789301;79;20948;-60
2022/05/24 04:58:18;;;;;;;3.10;1.85;;;;;;;16.49;59.63;151795.72;1790041;78;20930;-61
2022/05/24 05:00:46;;;;;;;3.33;1.82;;;;;;;16.59;58.79;151823.08;1789491;79;21036;-61
2022/05/24 05:03:14;;;;;;;4.10;2.00;;;;;;;16.66;58.61;151838.70;1789677;80;21469;-61
2022/05/24 05:05:41;;;;;;;2.92;2.02;;;;;;;16.76;58.65;151864.78;1789107;80;21123;-60
2022/05/24 05:08:10;;;;;;;4.90;2.00;;;;;;;16.90;58.36;151899.97;1789531;80;20985;-61
2022/05/24 05:10:37;;;;;;;4.17;1.98;;;;;;;17.06;58.44;151940.42;1785662;80;21009;-61
2022/05/24 05:13:05;;;;;;;5.35;2.40;;;;;;;17.22;57.86;151979.55;1780633;80;20929;-61
2022/05/24 05:15:34;;;;;;;5.37;2.17;;;;;;;17.34;57.53;152010.81;1765094;79;21025;-61
2022/05/24 05:18:07;;;;;;;5.45;1.80;;;;;;;17.52;56.86;152055.16;1764230;81;21239;-61
2022/05/24 05:20:39;;;;;;;3.55;2.00;;;;;;;17.67;56.49;152092.95;1764458;81;21023;-60
2022/05/24 05:23:11;;;;;;;3.37;1.80;;;;;;;17.86;55.85;152141.25;1764404;81;21057;-60
2022/05/24 05:25:38;;;;;;;2.80;1.70;;;;;;;18.01;54.75;152179.06;1764111;80;21000;-60
2022/05/24 05:28:06;;;;;;;5.60;2.08;;;;;;;18.20;54.85;152227.36;1775827;80;21014;-60
2022/05/24 05:33:18;;;;;;;2.75;1.92;;;;;;;18.49;53.53;152300.44;1772161;80;21047;-61
2022/05/24 05:35:48;;;;;;;3.10;2.15;;;;;;;18.64;53.49;152336.95;1770959;80;21524;-62
2022/05/24 05:38:17;;;;;;;5.97;2.05;;;;;;;18.78;53.71;152373.50;1774317;80;21115;-62
2022/05/24 05:40:44;;;;;;;3.72;2.20;;;;;;;18.89;53.27;152402.19;1778597;80;21124;-62
2022/05/24 05:43:12;;;;;;;4.05;2.10;;;;;;;19.01;52.81;152430.98;1775996;79;21560;-62
2022/05/24 05:45:39;;;;;;;3.35;2.02;;;;;;;19.15;51.96;152466.22;1774061;80;21504;-61
2022/05/24 05:48:07;;;;;;;3.55;2.12;;;;;;;19.23;51.62;152485.80;1775040;79;21061;-61
2022/05/24 05:50:34;;;;;;;2.95;2.10;;;;;;;19.36;51.36;152519.77;1774307;80;21604;-60
2022/05/24 05:53:04;;;;;;;4.08;2.00;;;;;;;19.40;51.01;152530.20;1775421;79;21575;-62
2022/05/24 05:55:30;;;;;;;6.33;2.12;;;;;;;19.51;51.02;152556.28;1770321;79;21507;-61
2022/05/24 05:57:58;;;;;;;4.97;2.52;;;;;;;19.65;49.47;152592.86;1781927;79;20924;-62
2022/05/24 06:00:25;;;;;;;4.03;2.08;;;;;;;19.82;49.34;152634.66;1777952;79;21036;-61
2022/05/24 06:02:52;;;;;;;5.33;2.05;;;;;;;19.96;48.93;152669.97;1781723;79;21024;-61
2022/05/24 06:05:19;;;;;;;2.33;1.90;;;;;;;20.04;48.12;152690.84;1784443;79;21055;-62
2022/05/24 06:07:46;;;;;;;3.98;1.85;;;;;;;20.15;46.61;152719.59;1774328;80;21313;-61
2022/05/24 06:10:14;;;;;;;1.85;1.70;;;;;;;20.20;45.75;152731.31;1767009;80;21076;-65
2022/05/24 06:12:43;;;;;;;4.50;1.70;;;;;;;20.20;45.26;152730.03;1778274;79;21023;-66
2022/05/24 06:15:10;;;;;;;8.50;1.65;;;;;;;20.23;42.96;152739.20;1778488;79;21083;-66
2022/05/24 06:17:45;;;;;;;4.00;1.32;;;;;;;20.26;42.68;152747.03;1780571;79;20918;-66
2022/05/24 06:20:16;;;;;;;4.15;1.82;;;;;;;20.29;42.46;152754.86;1790955;79;21841;-65
2022/05/24 06:22:43;;;;;;;4.67;1.90;;;;;;;20.24;42.23;152741.81;1795374;79;21485;-60
2022/05/24 06:25:11;;;;;;;7.20;1.67;;;;;;;20.31;41.87;152760.09;1782570;79;21073;-60
2022/05/24 06:27:39;;;;;;;11.97;1.60;;;;;;;20.41;40.63;152783.58;1813253;79;21023;-59
2022/05/24 06:30:08;;;;;;;6.70;1.60;;;;;;;20.47;39.52;152800.56;1806870;79;21009;-62
2022/05/24 06:32:35;;;;;;;4.10;1.55;;;;;;;20.54;38.59;152817.56;1786730;79;21536;-61
2022/05/24 06:35:06;;;;;;;2.42;1.25;;;;;;;20.53;38.31;152814.95;1780926;80;20976;-62
2022/05/24 06:37:33;;;;;;;5.37;1.80;;;;;;;20.49;38.28;152803.19;1779691;80;21029;-62
2022/05/24 06:40:00;;;;;;;5.35;1.50;;;;;;;20.45;38.57;152794.06;1783742;79;20926;-62
2022/05/24 06:42:27;;;;;;;3.72;1.90;;;;;;;20.52;38.65;152811.00;1778654;80;21005;-62
2022/05/24 06:44:56;;;;;;;3.58;1.70;;;;;;;20.57;38.80;152825.39;1780529;79;22067;-61
2022/05/24 06:47:24;;;;;;;5.33;1.55;;;;;;;20.53;39.14;152814.95;1775551;79;21539;-62
2022/05/24 06:49:52;;;;;;;5.03;1.92;;;;;;;20.59;39.43;152829.34;1775442;79;21049;-60
2022/05/24 06:52:20;;;;;;;3.35;1.65;;;;;;;20.69;39.70;152854.16;1779885;80;21067;-60
2022/05/24 06:54:48;;;;;;;4.05;1.62;;;;;;;20.79;40.02;152880.28;1777229;79;21124;-61
2022/05/24 06:57:15;;;;;;;3.90;1.70;;;;;;;21.00;40.15;152932.59;1779155;80;21183;-60
2022/05/24 07:02:29;;;;;;;3.55;2.02;;;;;;;21.08;39.53;152953.48;1777006;79;21013;-60
2022/05/24 07:05:06;;;;;;;5.10;1.90;;;;;;;21.07;38.93;152949.59;1775613;79;21061;-61
2022/05/24 07:07:36;;;;;;;3.90;1.50;;;;;;;21.06;38.80;152948.27;1714901;82;21451;-60
2022/05/24 07:10:07;;;;;;;3.00;1.60;;;;;;;21.13;39.77;152966.59;1779733;80;21246;-60
2022/05/24 07:12:34;;;;;;;4.42;2.00;;;;;;;21.27;40.58;153000.55;1780357;79;21033;-60
2022/05/24 07:15:01;;;;;;;2.98;1.80;;;;;;;21.43;42.01;153042.39;1781791;80;21014;-60
2022/05/24 07:17:29;;;;;;;3.40;1.85;;;;;;;21.58;41.99;153079.00;1789558;78;20980;-60
2022/05/24 07:19:56;;;;;;;4.35;1.80;;;;;;;21.74;42.69;153120.86;1790580;78;21068;-61
2022/05/24 07:22:23;;;;;;;3.52;1.87;;;;;;;21.92;42.05;153165.31;1790679;78;21493;-60
2022/05/24 07:24:50;;;;;;;3.27;1.65;;;;;;;21.99;42.23;153183.61;1790428;78;22063;-60
2022/05/24 07:27:19;;;;;;;3.50;2.00;;;;;;;22.16;42.30;153225.47;1803601;78;20934;-60
2022/05/24 07:29:48;;;;;;;4.15;1.90;;;;;;;22.28;41.40;153256.87;1791132;79;20992;-59
2022/05/24 07:32:15;;;;;;;5.75;2.00;;;;;;;22.33;40.92;153269.95;1791111;80;21482;-60
2022/05/24 07:34:42;;;;;;;5.37;1.87;;;;;;;22.33;40.53;153268.67;1789902;78;21544;-60
2022/05/24 07:37:13;;;;;;;2.05;1.70;;;;;;;22.34;40.71;153271.28;1791672;79;20968;-60
2022/05/24 07:39:40;;;;;;;2.90;2.00;;;;;;;22.43;40.85;153293.47;1793851;78;21115;-60
2022/05/24 07:47:40;;;;;;;3.60;1.70;;;;;;;22.57;40.31;153328.88;1790865;78;21449;-61
2022/05/24 07:50:09;;;;;;;2.55;1.95;;;;;;;22.56;40.26;153327.55;1791808;78;21040;-61
2022/05/24 07:52:36;;;;;;;3.30;2.10;;;;;;;22.64;40.91;153345.84;1790556;79;20974;-61
2022/05/24 07:55:05;;;;;;;6.35;2.42;;;;;;;22.76;41.19;153377.27;1788495;78;20998;-61
2022/05/24 07:57:32;;;;;;;2.90;2.20;;;;;;;22.91;40.82;153413.91;1790556;78;21052;-61
2022/05/24 07:59:59;;;;;;;2.40;1.62;;;;;;;23.04;39.69;153447.91;1790945;79;21497;-59
2022/05/24 08:02:27;;;;;;;3.10;2.12;;;;;;;23.10;39.55;153462.31;1790150;78;20992;-60
2022/05/24 08:04:55;;;;;;;2.33;1.60;;;;;;;23.17;39.61;153481.94;1793413;78;21564;-62
2022/05/24 08:07:22;;;;;;;8.45;1.85;;;;;;;23.13;39.06;153471.48;1791048;78;20927;-61
2022/05/24 08:09:49;;;;;;;2.70;1.47;;;;;;;23.05;37.87;153450.52;1788139;78;21095;-60
2022/05/24 08:12:17;;;;;;;4.65;1.30;;;;;;;23.04;37.38;153447.91;1791725;78;21224;-60
2022/05/24 08:14:44;;;;;;;2.77;1.60;;;;;;;23.10;37.15;153462.31;1788577;79;21065;-62
2022/05/24 08:17:12;;;;;;;4.00;1.90;;;;;;;23.13;37.31;153471.48;1771252;81;21017;-62
2022/05/24 08:19:39;;;;;;;5.92;1.80;;;;;;;23.12;37.83;153468.88;1771646;79;21080;-60
2022/05/24 08:22:06;;;;;;;2.17;1.40;;;;;;;22.98;37.40;153432.22;1770813;79;20951;-60
2022/05/24 08:24:34;;;;;;;1.85;1.55;;;;;;;22.93;37.78;153419.14;1770696;79;21323;-62
2022/05/24 08:27:01;;;;;;;5.33;1.40;;;;;;;23.06;37.21;153453.13;1772556;79;21104;-59
2022/05/24 08:29:29;;;;;;;4.70;1.30;;;;;;;23.16;36.25;153479.33;1771384;79;21068;-60
2022/05/24 08:31:56;;;;;;;3.55;1.55;;;;;;;23.28;35.28;153508.14;1790965;79;21128;-60
2022/05/24 08:34:24;;;;;;;2.22;1.27;;;;;;;23.30;35.13;153513.38;1771747;79;21010;-61
2022/05/24 08:36:51;;;;;;;3.62;1.65;;;;;;;23.30;34.70;153513.38;1770598;79;21225;-61
2022/05/24 08:39:18;;;;;;;3.77;1.50;;;;;;;23.30;34.23;153513.38;1770920;79;21446;-61
2022/05/24 08:42:21;;;;;;;2.08;1.55;;;;;;;23.29;34.22;153510.77;1769692;79;21351;-66
2022/05/24 08:50:38;;;;;;;2.83;1.70;;;;;;;23.70;34.23;153615.47;1764818;79;21137;-60
2022/05/24 08:53:10;;;;;;;6.00;2.37;;;;;;;23.81;34.71;153642.97;1768746;79;20854;-66
2022/05/24 08:55:37;;;;;;;2.27;1.65;;;;;;;23.83;35.08;153648.19;1762002;81;21474;-61
2022/05/24 08:58:05;;;;;;;2.55;1.50;;;;;;;23.91;35.30;153667.84;1740711;80;21093;-60
2022/05/24 09:00:38;;;;;;;3.52;1.80;;;;;;;23.95;35.55;153678.31;1772439;79;21481;-60
2022/05/24 09:03:06;;;;;;;2.17;1.50;;;;;;;23.97;36.25;153682.25;1772268;81;21221;-60
2022/05/24 09:05:36;;;;;;;2.92;1.50;;;;;;;23.98;36.59;153686.16;1767648;79;21033;-65
2022/05/24 09:08:29;;;;;;;4.40;1.82;;;;;;;23.94;36.40;153675.69;1773540;79;20989;-67
2022/05/24 09:11:09;;;;;;;3.77;2.12;;;;;;;23.80;36.23;153639.06;1769216;81;21188;-64
2022/05/24 09:14:02;;;;;;;2.12;1.37;;;;;;;23.51;36.29;153565.72;1775283;79;21140;-60
2022/05/24 09:17:02;;;;;;;3.62;1.30;;;;;;;23.23;36.63;153495.02;1754309;81;21522;-61
2022/05/24 09:19:35;;;;;;;4.35;1.45;;;;;;;23.07;37.07;153454.47;1754779;80;21005;-60
2022/05/24 09:22:03;;;;;;;3.02;1.50;;;;;;;23.04;37.17;153447.91;1790929;78;21134;-60
2022/05/24 09:24:47;;;;;;;4.90;1.70;;;;;;;23.06;37.24;153453.13;1785932;79;20990;-65
2022/05/24 09:27:18;;;;;;;1.82;1.37;;;;;;;23.09;37.20;153460.98;1761334;80;21060;-66
2022/05/24 09:30:07;;;;;;;1.98;1.40;;;;;;;23.10;37.30;153463.64;1789350;78;21248;-64
2022/05/24 09:32:43;;;;;;;2.75;1.32;;;;;;;23.03;36.82;153445.28;1785641;78;21092;-67
2022/05/24 09:35:21;;;;;;;1.98;1.47;;;;;;;22.96;36.71;153426.98;1788400;78;21005;-65
2022/05/24 09:38:08;;;;;;;2.50;1.47;;;;;;;22.97;36.88;153430.87;1790617;78;21025;-66
2022/05/24 09:40:59;;;;;;;2.52;1.70;;;;;;;23.03;36.83;153445.28;1782022;80;21527;-67
2022/05/24 09:43:33;;;;;;;2.45;1.20;;;;;;;23.07;36.76;153455.75;1801422;78;22058;-66
2022/05/24 09:46:08;;;;;;;2.05;1.42;;;;;;;23.08;36.87;153458.36;1768516;80;21080;-67
2022/05/24 09:48:38;;;;;;;3.72;2.00;;;;;;;23.04;36.69;153447.91;1788591;79;21056;-66
2022/05/24 09:51:11;;;;;;;2.58;1.65;;;;;;;22.97;36.64;153429.59;1788590;78;21009;-67
2022/05/24 09:53:51;;;;;;;4.00;1.60;;;;;;;22.86;36.70;153403.41;1786911;78;21072;-67
2022/05/24 09:56:29;;;;;;;2.72;1.60;;;;;;;22.73;37.09;153370.70;1766425;80;21131;-65
2022/05/24 09:59:00;;;;;;;5.15;1.90;;;;;;;22.62;37.41;153341.95;1784927;80;21433;-66
2022/05/24 10:01:40;;;;;;;4.95;1.65;;;;;;;22.46;37.78;153302.69;1788727;80;21623;-65
2022/05/24 10:04:21;;;;;;;2.25;1.65;;;;;;;22.29;37.83;153259.50;1788705;80;21044;-66
2022/05/24 10:07:24;;;;;;;3.70;1.35;;;;;;;22.12;37.54;153215.02;1797934;78;21028;-65
2022/05/24 10:09:59;;;;;;;7.85;1.62;;;;;;;21.89;37.76;153158.81;1785877;78;21295;-66
2022/05/24 10:12:37;;;;;;;2.30;1.55;;;;;;;21.68;37.69;153105.19;1787921;78;21033;-66
2022/05/24 10:15:28;;;;;;;2.98;2.00;;;;;;;21.52;38.42;153064.63;1786677;78;21033;-65
2022/05/24 10:18:16;;;;;;;5.20;2.02;;;;;;;21.56;38.90;153075.06;1792010;78;21107;-67
2022/05/24 10:21:04;;;;;;;3.65;1.72;;;;;;;21.67;39.17;153102.56;1791647;78;21028;-65
2022/05/24 10:23:43;;;;;;;3.20;1.90;;;;;;;21.85;39.38;153147.03;1789334;78;22931;-66
2022/05/24 10:26:44;;;;;;;3.70;1.72;;;;;;;21.96;39.13;153175.78;1786534;78;21109;-65
2022/05/24 10:29:23;;;;;;;4.42;1.87;;;;;;;21.96;39.18;153175.78;1796666;78;21090;-66
2022/05/24 10:31:58;;;;;;;3.10;1.90;;;;;;;21.94;39.05;153170.55;1793632;78;20989;-65
2022/05/24 10:41:04;;;;;;;2.47;1.55;;;;;;;21.98;38.99;153181.00;1819542;78;20971;-66
2022/05/24 10:43:58;;;;;;;3.42;1.65;;;;;;;22.00;38.87;153186.28;1743413;81;21088;-67
2022/05/24 10:46:58;;;;;;;5.00;1.80;;;;;;;22.01;38.70;153188.89;1721663;81;21052;-65
2022/05/24 10:49:50;;;;;;;3.62;1.55;;;;;;;22.04;38.42;153196.72;1772980;79;21053;-67
2022/05/24 10:52:31;;;;;;;3.17;1.50;;;;;;;22.13;38.26;153217.63;1788881;79;21125;-65
2022/05/24 10:55:18;;;;;;;2.00;1.40;;;;;;;22.26;37.83;153251.66;1785996;79;21411;-66
2022/05/24 10:58:11;;;;;;;5.85;1.57;;;;;;;22.32;36.93;153267.33;1797324;78;21402;-66
2022/05/24 11:01:02;;;;;;;2.27;1.42;;;;;;;22.29;36.49;153259.50;1784200;78;20985;-66
2022/05/24 11:03:33;;;;;;;2.20;1.50;;;;;;;22.22;36.73;153241.20;1753737;78;20925;-67
2022/05/24 11:06:06;;;;;;;3.22;1.50;;;;;;;22.11;37.22;153212.41;1791621;78;21426;-66
2022/05/24 11:08:42;;;;;;;1.70;1.60;;;;;;;22.04;37.71;153195.39;1806033;78;21305;-67
2022/05/24 11:11:36;;;;;;;6.15;1.67;;;;;;;22.00;37.94;153186.28;1792228;78;21079;-66
2022/05/24 11:14:20;;;;;;;5.00;1.52;;;;;;;22.00;37.90;153186.28;1784506;78;21056;-66
2022/05/24 11:16:49;;;;;;;2.10;1.47;;;;;;;22.03;37.43;153194.11;1781178;78;21037;-67
2022/05/24 11:19:31;;;;;;;2.92;1.60;;;;;;;21.99;37.36;153182.33;1800083;78;22075;-66
2022/05/24 11:22:20;;;;;;;2.30;1.40;;;;;;;21.98;37.16;153179.72;1790672;78;21029;-68
2022/05/24 11:25:19;;;;;;;3.33;1.50;;;;;;;21.87;36.99;153152.25;1768151;80;21028;-65
2022/05/24 11:27:52;;;;;;;5.55;1.40;;;;;;;21.73;36.86;153118.25;1758109;81;20956;-66
2022/05/24 11:30:36;;;;;;;1.85;1.50;;;;;;;21.61;37.42;153088.13;1804372;78;21509;-65
2022/05/24 11:33:11;;;;;;;4.23;1.80;;;;;;;21.59;38.28;153081.63;1791719;78;21759;-65
2022/05/24 11:35:45;;;;;;;2.27;1.40;;;;;;;21.56;38.81;153073.78;1788427;79;21868;-66
2022/05/24 11:38:30;;;;;;;3.08;1.60;;;;;;;21.49;39.00;153055.45;1789430;78;24543;-65
2022/05/24 11:41:20;;;;;;;2.50;1.30;;;;;;;21.39;38.99;153031.94;1788940;78;21053;-66
2022/05/24 11:43:54;;;;;;;2.22;1.40;;;;;;;21.28;38.59;153003.16;1821103;78;21375;-65
2022/05/24 11:46:41;;;;;;;1.85;1.47;;;;;;;21.10;38.47;152958.70;1796642;78;21273;-66
2022/05/24 11:49:28;;;;;;;1.75;1.40;;;;;;;20.92;40.30;152911.70;1789177;79;21025;-66
2022/05/24 11:51:58;;;;;;;5.75;1.42;;;;;;;20.69;41.96;152854.16;1791171;78;21033;-66
2022/05/24 11:54:31;;;;;;;2.87;1.50;;;;;;;20.51;42.63;152809.73;1800942;78;21067;-66
2022/05/24 11:57:07;;;;;;;3.17;1.50;;;;;;;20.38;42.86;152777.08;1794272;78;21064;-65
2022/05/24 11:59:47;;;;;;;3.87;2.35;;;;;;;20.30;42.51;152756.14;1792374;78;21130;-64
2022/05/24 12:02:25;;;;;;;3.27;1.50;;;;;;;20.24;42.03;152740.48;1818943;78;20987;-62
2022/05/24 12:08:06;;;;;;;2.77;1.60;;;;;;;20.13;41.31;152713.05;1819595;78;20971;-63
2022/05/24 12:10:55;;;;;;;4.20;1.95;;;;;;;20.12;41.37;152711.77;1765514;78;35542;-61
2022/05/24 12:13:28;;;;;;;5.47;1.75;;;;;;;20.20;41.61;152731.31;1789931;78;21247;-64
2022/05/24 12:16:03;;;;;;;4.95;1.50;;;;;;;20.25;42.32;152744.42;1787683;79;21512;-58
2022/05/24 12:18:41;;;;;;;3.90;1.70;;;;;;;20.33;42.29;152765.30;1772060;79;21072;-60
2022/05/24 12:21:14;;;;;;;2.92;1.65;;;;;;;20.42;42.58;152787.52;1772220;79;21060;-64
2022/05/24 12:23:42;;;;;;;5.55;2.00;;;;;;;20.51;42.47;152809.73;1794386;79;21031;-63
2022/05/24 12:26:13;;;;;;;4.83;1.45;;;;;;;20.58;42.65;152828.00;1802605;79;22359;-59
2022/05/24 12:28:52;;;;;;;4.90;1.50;;;;;;;20.65;42.79;152843.67;1768140;81;21288;-63